Alanson, MI (49706)

1:19 AM EST on November 28, 2014 (GMT -0500)
Markspm | Change Station
CLOSE
Current Station
Personal Weather Station
Location: Harbor Springs, MI
Elevation: 745 ft
Nearby Weather Stations

Elev 745 ft 45.43 °N, 84.91 °W | Updated 14 minutes ago

Overcast
Overcast
15.7 °F
Feels Like 16 °F
N
0.0
Wind Variable Wind from NW
Gusts 0.0 mph

Today
High -- | Low -- °F
--% Chance of Precip.
Yesterday
High -- | Low -- °F
Precip. -- in
7:55 AM 4:58 PM
Waxing Crescent, 37% visible
Pressure 30.27 in
Visibility 10.0 miles
Clouds Overcast 3600 ft
Windchill 16 °F
Dew Point 12 °F
Humidity 85%
Rainfall 0.00 in
Snow Depth Not available.
UV 0 out of 12
Pollen .10 out of 12
Air Quality Not available.
Flu Activity Not available.
METAR KMGN 280614Z AUTO 00000KT 10SM OVC036 M08/M12 A3027 RMK AO2 T10801126

More Conditions Fewer Conditions

Pressure 30.27 in
Visibility 10.0 miles
Clouds Overcast 3600 ft
Windchill 16 °F
Dew Point 12 °F
Humidity 85%
Rainfall 0.00 in
Snow Depth Not available.
UV 0 out of 12
Pollen .10 out of 12
Air Quality Not available.
Flu Activity Not available.
METAR KMGN 280614Z AUTO 00000KT 10SM OVC036 M08/M12 A3027 RMK AO2 T10801126

More Conditions Fewer Conditions

Nowcast | as of 1:00 am EST on November 28, 2014

At 2 am...numerous snow showers. Temperature 18. Northwest winds 6 mph. At 4 am...numerous snow showers. Temperature 18. West winds 6 mph. At 6 am...numerous snow showers. Temperature 17. West winds 7 mph. At 8 am...snow. Temperature 18. Southwest winds 8 mph.

×

10-Day Weather Forecast

Almanac

Astronomy

Nov. 28, 2014 Rise Set
Actual Time
Civil Twilight
Nautical Twilight
Astronomical Twilight
Moon
Length of Visible Light
Length of Day
Tomorrow will be .
, % of the Moon is Illuminated

Today's Extremes

State Highs State Lows

Community

WunderPhotos

Upload Photos

1,774,197 photos uploaded!

WunderBlogs® & News

Nearby

Air Quality

  Air Quality AQ Index Pollutant
Not available.

Snow Depth

Station Depth Elevation

Earthquake Activity

City Distance Mag. Time & Date
Minimum magnitude displayed is 2.5.

Coastal Water Temperatures

Place Temperature

Nearby Weather Stations